Time;durP1;ratioP1;P1;durP2;ratioP2;P2;SDS_P1;SDS_P2;PMS_P1;PMS_P2;Temp;Humidity;BMP_temperature;BMP_pressure;BME280_temperature;BME280_humidity;BME280_pressure;Samples;Min_cycle;Max_cycle;Signal;HPM_P1;HPM_P2
2023/11/25 00:03:10;;;;;;;6.55;2.00;;;;;;;;;;10472483;28;20451;-74
2023/11/25 00:08:15;;;;;;;5.55;2.03;;;;;;;;;;10477243;28;20055;-74
2023/11/25 00:13:20;;;;;;;6.80;2.03;;;;;;;;;;10476789;28;20052;-74
2023/11/25 00:18:24;;;;;;;3.53;1.85;;;;;;;;;;10477034;28;20045;-74
2023/11/25 00:23:28;;;;;;;4.75;1.60;;;;;;;;;;10477119;28;20118;-74
2023/11/25 00:28:31;;;;;;;7.70;1.90;;;;;;;;;;10488330;28;20082;-74
2023/11/25 00:33:36;;;;;;;2.03;1.23;;;;;;;;;;10480100;28;20056;-74
2023/11/25 00:38:40;;;;;;;3.83;1.70;;;;;;;;;;10465242;28;20106;-74
2023/11/25 00:43:43;;;;;;;2.20;0.85;;;;;;;;;;10469870;28;20067;-74
2023/11/25 00:48:49;;;;;;;1.50;0.75;;;;;;;;;;10488750;28;20041;-74
2023/11/25 00:53:52;;;;;;;1.30;1.08;;;;;;;;;;10451688;28;20067;-74
2023/11/25 00:58:56;;;;;;;3.70;1.55;;;;;;;;;;10482577;28;20446;-74
2023/11/25 01:04:01;;;;;;;4.32;1.38;;;;;;;;;;10469824;28;20051;-74
2023/11/25 01:09:05;;;;;;;2.88;0.98;;;;;;;;;;10469747;28;20040;-74
2023/11/25 01:14:09;;;;;;;3.28;1.40;;;;;;;;;;10457046;28;20047;-74
2023/11/25 01:19:13;;;;;;;4.32;1.40;;;;;;;;;;10474136;28;20056;-74
2023/11/25 01:24:17;;;;;;;3.38;1.55;;;;;;;;;;10492354;28;20103;-74
2023/11/25 01:29:20;;;;;;;4.38;1.40;;;;;;;;;;10491686;28;20025;-75
2023/11/25 01:34:25;;;;;;;3.55;1.33;;;;;;;;;;10491969;28;20042;-74
2023/11/25 01:39:30;;;;;;;2.05;0.98;;;;;;;;;;10485831;28;20041;-74
2023/11/25 01:44:33;;;;;;;3.55;1.13;;;;;;;;;;10491632;28;20475;-74
2023/11/25 01:49:39;;;;;;;2.70;0.90;;;;;;;;;;10483880;28;20045;-74
2023/11/25 01:54:42;;;;;;;3.60;1.00;;;;;;;;;;10466979;28;20625;-74
2023/11/25 01:59:49;;;;;;;2.90;1.27;;;;;;;;;;10472855;28;20103;-74
2023/11/25 02:04:54;;;;;;;1.88;0.90;;;;;;;;;;10464099;28;20052;-75
2023/11/25 02:09:58;;;;;;;3.27;1.67;;;;;;;;;;10465733;28;20423;-74
2023/11/25 02:15:02;;;;;;;1.85;1.20;;;;;;;;;;10468183;28;20706;-74
2023/11/25 02:20:10;;;;;;;5.55;1.63;;;;;;;;;;10468400;28;20447;-74
2023/11/25 02:25:15;;;;;;;2.83;1.45;;;;;;;;;;10474967;28;20110;-74
2023/11/25 02:30:19;;;;;;;5.22;2.60;;;;;;;;;;10483910;28;20053;-74
2023/11/25 02:35:23;;;;;;;11.57;2.45;;;;;;;;;;10476712;28;20040;-74
2023/11/25 02:40:27;;;;;;;6.63;2.80;;;;;;;;;;10483852;28;20028;-75
2023/11/25 02:45:31;;;;;;;5.85;2.97;;;;;;;;;;10459991;28;20049;-74
2023/11/25 02:50:35;;;;;;;5.15;2.70;;;;;;;;;;10477631;28;20036;-74
2023/11/25 02:55:40;;;;;;;4.97;2.15;;;;;;;;;;10451486;28;20048;-74
2023/11/25 03:00:44;;;;;;;5.10;2.67;;;;;;;;;;10477459;28;20478;-74
2023/11/25 03:05:49;;;;;;;3.40;2.15;;;;;;;;;;10482419;28;20044;-74
2023/11/25 03:10:55;;;;;;;4.95;2.15;;;;;;;;;;10461922;28;20045;-74
2023/11/25 03:15:59;;;;;;;5.38;2.55;;;;;;;;;;10485045;28;20036;-74
2023/11/25 03:21:03;;;;;;;6.00;3.53;;;;;;;;;;10454077;28;20036;-74
2023/11/25 03:26:11;;;;;;;5.10;2.95;;;;;;;;;;10458241;28;20053;-74
2023/11/25 03:31:16;;;;;;;4.95;2.75;;;;;;;;;;10465659;28;20067;-74
2023/11/25 03:36:20;;;;;;;5.53;3.25;;;;;;;;;;10475087;28;20519;-74
2023/11/25 03:41:24;;;;;;;6.28;3.30;;;;;;;;;;10474665;28;20060;-74
2023/11/25 03:46:28;;;;;;;5.75;2.80;;;;;;;;;;10460267;28;20048;-74
2023/11/25 03:51:32;;;;;;;4.95;2.00;;;;;;;;;;10474053;28;20040;-74
2023/11/25 03:56:36;;;;;;;5.45;2.85;;;;;;;;;;10563637;22;20044;-73
2023/11/25 04:01:41;;;;;;;4.88;3.72;;;;;;;;;;10471337;28;20064;-73
2023/11/25 04:06:45;;;;;;;5.72;3.22;;;;;;;;;;10443331;28;20041;-73
2023/11/25 04:11:49;;;;;;;5.00;3.05;;;;;;;;;;10428978;28;20037;-73
2023/11/25 04:16:52;;;;;;;5.20;2.50;;;;;;;;;;10438711;28;20087;-73
2023/11/25 04:21:58;;;;;;;7.05;2.42;;;;;;;;;;10442587;28;20647;-73
2023/11/25 04:27:04;;;;;;;4.38;2.35;;;;;;;;;;10413952;28;20771;-73
2023/11/25 04:32:09;;;;;;;6.93;3.08;;;;;;;;;;10436385;28;20132;-73
2023/11/25 04:37:12;;;;;;;3.70;1.98;;;;;;;;;;10440922;28;20072;-74
2023/11/25 04:42:16;;;;;;;1.40;1.30;;;;;;;;;;10438848;28;20045;-73
2023/11/25 04:47:20;;;;;;;6.57;2.15;;;;;;;;;;10442440;28;20040;-73
2023/11/25 04:52:24;;;;;;;5.35;1.65;;;;;;;;;;10439460;28;20037;-73
2023/11/25 04:57:29;;;;;;;4.75;2.03;;;;;;;;;;10448335;28;20040;-73
2023/11/25 05:02:32;;;;;;;9.40;2.45;;;;;;;;;;10447105;28;20053;-73
2023/11/25 05:07:36;;;;;;;9.98;2.45;;;;;;;;;;10440718;28;20118;-73
2023/11/25 05:12:42;;;;;;;10.15;2.63;;;;;;;;;;10444596;28;20397;-74
2023/11/25 05:17:46;;;;;;;3.33;1.63;;;;;;;;;;10451297;28;20041;-73
2023/11/25 05:22:49;;;;;;;6.80;1.70;;;;;;;;;;10451895;28;20076;-73
2023/11/25 05:27:54;;;;;;;8.70;2.53;;;;;;;;;;10441321;28;20069;-73
2023/11/25 05:32:57;;;;;;;8.32;5.22;;;;;;;;;;10444639;28;20056;-73
2023/11/25 05:38:01;;;;;;;11.25;6.05;;;;;;;;;;10443308;28;20053;-74
2023/11/25 05:43:05;;;;;;;12.98;5.30;;;;;;;;;;10446769;28;20047;-73
2023/11/25 05:48:10;;;;;;;13.93;5.32;;;;;;;;;;10448806;28;20120;-73
2023/11/25 05:53:13;;;;;;;9.23;4.35;;;;;;;;;;10435016;28;20127;-73
2023/11/25 05:58:17;;;;;;;11.02;4.50;;;;;;;;;;10444593;28;20420;-73
2023/11/25 06:03:23;;;;;;;13.45;3.88;;;;;;;;;;10435121;28;20076;-73
2023/11/25 06:08:26;;;;;;;9.73;3.88;;;;;;;;;;10446119;28;20069;-73
2023/11/25 06:13:31;;;;;;;11.20;3.50;;;;;;;;;;10449141;28;20052;-74
2023/11/25 06:18:34;;;;;;;3.50;2.00;;;;;;;;;;10447433;28;20051;-73
2023/11/25 06:23:37;;;;;;;9.00;1.55;;;;;;;;;;10437905;28;20041;-73
2023/11/25 06:28:43;;;;;;;4.82;1.67;;;;;;;;;;10444839;28;20046;-73
2023/11/25 06:33:46;;;;;;;6.77;1.77;;;;;;;;;;10438250;28;20091;-73
2023/11/25 06:38:49;;;;;;;6.07;2.05;;;;;;;;;;10447998;28;20677;-73
2023/11/25 06:43:54;;;;;;;6.15;1.90;;;;;;;;;;10437147;28;20087;-73
2023/11/25 06:48:57;;;;;;;5.15;2.00;;;;;;;;;;10444642;28;20041;-73
2023/11/25 06:54:01;;;;;;;6.72;2.20;;;;;;;;;;10420597;28;20064;-73
2023/11/25 06:59:05;;;;;;;11.90;2.50;;;;;;;;;;10438484;28;20043;-73
2023/11/25 07:04:10;;;;;;;7.10;2.63;;;;;;;;;;10441049;28;20059;-74
2023/11/25 07:09:13;;;;;;;6.45;1.58;;;;;;;;;;10440512;28;20033;-73
2023/11/25 07:14:18;;;;;;;6.40;1.85;;;;;;;;;;10424026;28;20103;-73
2023/11/25 07:19:22;;;;;;;6.50;1.85;;;;;;;;;;10436052;28;20052;-73
2023/11/25 07:24:27;;;;;;;7.25;2.17;;;;;;;;;;10437539;28;20561;-73
2023/11/25 07:29:32;;;;;;;4.82;1.70;;;;;;;;;;10435179;28;20044;-73
2023/11/25 07:34:35;;;;;;;6.03;2.08;;;;;;;;;;10436412;28;20052;-74
2023/11/25 07:39:39;;;;;;;6.03;1.90;;;;;;;;;;10442422;28;20037;-73
2023/11/25 07:44:43;;;;;;;5.10;1.77;;;;;;;;;;10438270;28;20207;-73
2023/11/25 07:49:47;;;;;;;6.65;1.73;;;;;;;;;;10443605;28;20041;-73
2023/11/25 07:54:50;;;;;;;8.60;2.15;;;;;;;;;;10446633;28;20047;-73
2023/11/25 07:59:55;;;;;;;4.25;1.60;;;;;;;;;;10434878;28;20051;-73
2023/11/25 08:04:58;;;;;;;14.55;2.67;;;;;;;;;;10429191;28;20631;-73
2023/11/25 08:10:03;;;;;;;10.70;2.45;;;;;;;;;;10441969;28;20127;-73
2023/11/25 08:15:10;;;;;;;4.72;1.67;;;;;;;;;;10443796;28;20069;-73
2023/11/25 08:20:14;;;;;;;6.07;2.05;;;;;;;;;;10422353;28;20504;-73
2023/11/25 08:25:18;;;;;;;5.13;1.70;;;;;;;;;;10443334;28;20122;-73
2023/11/25 08:30:23;;;;;;;8.18;2.00;;;;;;;;;;10445015;28;20056;-73
2023/11/25 08:35:26;;;;;;;7.03;1.90;;;;;;;;;;10450853;28;20076;-73
2023/11/25 08:40:30;;;;;;;8.45;2.47;;;;;;;;;;10445512;28;20042;-73
2023/11/25 08:45:34;;;;;;;11.65;3.75;;;;;;;;;;10451339;28;20473;-73
2023/11/25 08:50:38;;;;;;;13.68;3.28;;;;;;;;;;10448816;28;20037;-73
2023/11/25 08:55:41;;;;;;;6.20;2.20;;;;;;;;;;10448663;28;20140;-73
2023/11/25 09:00:46;;;;;;;18.40;3.00;;;;;;;;;;10443553;28;20065;-73
2023/11/25 09:05:49;;;;;;;6.10;2.28;;;;;;;;;;10447581;28;20055;-74
2023/11/25 09:10:52;;;;;;;7.82;2.30;;;;;;;;;;10450949;28;20033;-74
2023/11/25 09:15:57;;;;;;;5.10;1.70;;;;;;;;;;10448779;28;20059;-74
2023/11/25 09:21:01;;;;;;;2.55;1.55;;;;;;;;;;10442562;28;20037;-73
2023/11/25 09:26:04;;;;;;;3.05;1.17;;;;;;;;;;10444450;28;20043;-74
2023/11/25 09:31:09;;;;;;;6.32;1.50;;;;;;;;;;10438929;28;20065;-73
2023/11/25 09:36:12;;;;;;;3.85;1.48;;;;;;;;;;10439771;28;20075;-73
2023/11/25 09:41:15;;;;;;;1.73;1.10;;;;;;;;;;10443321;28;20051;-73
2023/11/25 09:46:21;;;;;;;3.25;1.13;;;;;;;;;;10439636;28;20060;-73
2023/11/25 09:51:25;;;;;;;4.30;1.25;;;;;;;;;;10440175;28;20045;-73
2023/11/25 09:56:28;;;;;;;4.80;1.85;;;;;;;;;;10448068;28;20037;-74
2023/11/25 10:01:34;;;;;;;7.72;1.85;;;;;;;;;;10438797;28;20063;-73
2023/11/25 10:06:38;;;;;;;8.15;2.60;;;;;;;;;;10440197;28;20049;-73
2023/11/25 10:11:42;;;;;;;6.15;1.83;;;;;;;;;;10447006;28;20111;-74
2023/11/25 10:16:47;;;;;;;6.15;1.70;;;;;;;;;;10450934;28;20495;-73
2023/11/25 10:27:31;;;;;;;8.45;2.50;;;;;;;;;;10436839;26;20514;-74
2023/11/25 10:32:36;;;;;;;6.22;2.60;;;;;;;;;;10477118;28;20033;-73
2023/11/25 10:37:40;;;;;;;4.53;1.75;;;;;;;;;;10475933;28;20072;-73
2023/11/25 10:42:44;;;;;;;5.68;2.08;;;;;;;;;;10478675;28;20037;-73
2023/11/25 10:47:48;;;;;;;5.93;1.65;;;;;;;;;;10479376;28;20087;-73
2023/11/25 10:52:56;;;;;;;6.47;2.03;;;;;;;;;;10465645;28;20140;-73
2023/11/25 10:58:00;;;;;;;4.22;1.80;;;;;;;;;;10479624;28;20131;-73
2023/11/25 11:03:12;;;;;;;3.70;1.88;;;;;;;;;;10474293;28;20404;-74
2023/11/25 11:08:20;;;;;;;5.68;2.63;;;;;;;;;;10483712;28;20448;-73
2023/11/25 11:13:28;;;;;;;10.18;2.42;;;;;;;;;;10481073;28;20055;-73
2023/11/25 11:18:36;;;;;;;8.80;2.33;;;;;;;;;;10481150;28;20098;-73
2023/11/25 11:23:40;;;;;;;3.90;2.00;;;;;;;;;;10483480;28;20492;-73
2023/11/25 11:28:49;;;;;;;3.25;1.40;;;;;;;;;;10468856;28;20320;-74
2023/11/25 11:33:53;;;;;;;7.93;1.98;;;;;;;;;;10479165;28;20048;-73
2023/11/25 11:38:57;;;;;;;7.80;1.95;;;;;;;;;;10484088;28;20493;-73
2023/11/25 11:44:04;;;;;;;4.07;1.85;;;;;;;;;;10464077;28;20067;-73
2023/11/25 11:49:11;;;;;;;5.45;1.90;;;;;;;;;;10484952;28;20049;-73
2023/11/25 11:54:26;;;;;;;5.72;1.88;;;;;;;;;;10483865;28;20558;-74
2023/11/25 11:59:58;;;;;;;3.97;1.50;;;;;;;;;;10478941;28;20131;-73
2023/11/25 12:05:04;;;;;;;3.65;1.30;;;;;;;;;;10477080;28;20489;-73
2023/11/25 12:10:08;;;;;;;3.95;1.50;;;;;;;;;;10477938;28;20036;-74
2023/11/25 12:15:11;;;;;;;3.13;1.50;;;;;;;;;;10467311;28;20064;-73
2023/11/25 12:20:17;;;;;;;3.38;0.95;;;;;;;;;;10484487;28;20040;-73
2023/11/25 12:25:20;;;;;;;2.50;1.30;;;;;;;;;;10471167;28;20048;-74
2023/11/25 12:30:23;;;;;;;4.80;1.50;;;;;;;;;;10483768;28;20222;-74
2023/11/25 12:35:28;;;;;;;3.97;1.67;;;;;;;;;;10481573;28;20043;-73
2023/11/25 12:40:31;;;;;;;4.00;1.40;;;;;;;;;;10484263;28;20049;-73
2023/11/25 12:45:36;;;;;;;3.35;1.23;;;;;;;;;;10475949;28;20713;-74
2023/11/25 12:51:04;;;;;;;5.38;1.60;;;;;;;;;;10485993;28;20044;-73
2023/11/25 12:56:14;;;;;;;3.97;1.42;;;;;;;;;;10463234;28;20072;-73
2023/11/25 13:01:23;;;;;;;5.25;1.50;;;;;;;;;;10459022;28;20410;-74
2023/11/25 13:06:28;;;;;;;2.40;1.40;;;;;;;;;;10475581;28;20409;-73
2023/11/25 13:11:32;;;;;;;2.90;1.90;;;;;;;;;;10483087;28;20047;-73
2023/11/25 13:16:36;;;;;;;4.07;1.60;;;;;;;;;;10486142;28;20036;-73
2023/11/25 13:21:41;;;;;;;4.25;1.73;;;;;;;;;;10490173;28;20072;-73
2023/11/25 13:26:45;;;;;;;4.07;1.35;;;;;;;;;;10470081;28;20479;-73
2023/11/25 13:31:48;;;;;;;3.85;1.30;;;;;;;;;;10492440;28;20053;-73
2023/11/25 13:36:53;;;;;;;5.55;1.20;;;;;;;;;;10484639;28;20442;-74
2023/11/25 13:41:56;;;;;;;3.00;1.20;;;;;;;;;;10482721;28;20051;-74
2023/11/25 13:46:59;;;;;;;3.38;1.17;;;;;;;;;;10485249;28;20059;-74
2023/11/25 13:52:05;;;;;;;3.40;1.42;;;;;;;;;;10491037;28;20730;-74
2023/11/25 13:57:09;;;;;;;2.65;1.13;;;;;;;;;;10489764;28;20047;-74
2023/11/25 14:02:13;;;;;;;7.93;1.63;;;;;;;;;;10488477;28;20051;-74
2023/11/25 14:07:19;;;;;;;5.35;1.77;;;;;;;;;;10488155;28;20052;-74
2023/11/25 15:08:08;;;;;;;6.68;1.73;;;;;;;;;;10482026;28;20052;-74
2023/11/25 15:40:55;;;;;;;6.03;2.05;;;;;;;;;;10144368;28;20047;-73
2023/11/25 15:46:45;;;;;;;9.20;2.88;;;;;;;;;;10227464;28;20067;-73
2023/11/25 15:59:03;;;;;;;8.77;2.95;;;;;;;;;;10257272;28;20078;-74
2023/11/25 16:29:47;;;;;;;5.78;1.45;;;;;;;;;;10397370;28;20037;-73
2023/11/25 16:40:30;;;;;;;6.00;1.48;;;;;;;;;;11266474;23;20577;-89
2023/11/25 16:45:37;;;;;;;7.28;2.10;;;;;;;;;;10333993;28;20053;-89
2023/11/25 16:50:40;;;;;;;;;;;;;;;;;;10330748;28;20101;-88
2023/11/25 16:55:43;;;;;;;4.32;1.42;;;;;;;;;;10338546;28;20612;-88
2023/11/25 17:00:49;;;;;;;3.97;1.92;;;;;;;;;;10340849;28;20046;-87
2023/11/25 17:05:53;;;;;;;28.23;11.60;;;;;;;;;;10331614;28;20100;-88
2023/11/25 17:10:56;;;;;;;27.77;12.70;;;;;;;;;;10345798;28;20042;-88
2023/11/25 17:16:01;;;;;;;16.25;7.10;;;;;;;;;;10337830;28;20041;-88
2023/11/25 17:21:05;;;;;;;14.82;7.53;;;;;;;;;;10346281;28;20050;-87
2023/11/25 17:26:08;;;;;;;35.17;18.50;;;;;;;;;;10335200;28;20050;-87
2023/11/25 17:31:13;;;;;;;34.22;21.00;;;;;;;;;;10350164;28;20136;-88
2023/11/25 17:36:17;;;;;;;10.95;6.60;;;;;;;;;;10352046;28;20050;-89
2023/11/25 17:41:20;;;;;;;7.30;5.35;;;;;;;;;;10362145;28;20078;-83
2023/11/25 17:46:25;;;;;;;3.53;2.80;;;;;;;;;;10359532;28;20050;-83
2023/11/25 17:51:28;;;;;;;3.15;1.70;;;;;;;;;;10371894;28;20065;-84
2023/11/25 17:56:35;;;;;;;2.90;1.73;;;;;;;;;;10362485;28;20050;-82
2023/11/25 18:01:40;;;;;;;3.25;2.10;;;;;;;;;;10367705;28;20046;-83
2023/11/25 18:06:44;;;;;;;2.43;1.53;;;;;;;;;;10340828;28;20358;-83
2023/11/25 18:11:47;;;;;;;4.32;2.70;;;;;;;;;;10341918;28;20073;-83
2023/11/25 18:17:01;;;;;;;4.85;3.60;;;;;;;;;;10333208;28;20045;-83
2023/11/25 18:22:05;;;;;;;9.02;5.68;;;;;;;;;;10340975;28;20656;-84
2023/11/25 18:27:09;;;;;;;7.82;3.75;;;;;;;;;;10342231;28;20377;-83
2023/11/25 18:32:16;;;;;;;7.45;3.38;;;;;;;;;;10347538;28;20081;-83
2023/11/25 18:37:19;;;;;;;6.80;4.00;;;;;;;;;;10355978;28;20043;-83
2023/11/25 18:42:23;;;;;;;5.13;3.70;;;;;;;;;;10333941;28;20054;-82
2023/11/25 18:47:27;;;;;;;10.27;4.07;;;;;;;;;;10334119;28;20071;-83
2023/11/25 18:52:31;;;;;;;9.25;5.35;;;;;;;;;;10336521;28;20049;-83
2023/11/25 18:57:34;;;;;;;11.05;4.55;;;;;;;;;;10350536;28;20056;-83
2023/11/25 19:02:39;;;;;;;8.80;3.85;;;;;;;;;;10336514;28;20060;-84
2023/11/25 19:07:42;;;;;;;10.60;4.63;;;;;;;;;;10346954;28;20050;-84
2023/11/25 19:12:46;;;;;;;6.57;2.78;;;;;;;;;;10338660;28;20061;-84
2023/11/25 19:17:50;;;;;;;1.77;1.10;;;;;;;;;;10355285;28;20074;-84
2023/11/25 19:22:54;;;;;;;1.30;0.70;;;;;;;;;;10336839;28;20491;-85
2023/11/25 19:27:57;;;;;;;2.38;1.83;;;;;;;;;;10329693;28;20042;-84
2023/11/25 19:33:02;;;;;;;3.10;2.80;;;;;;;;;;10331091;28;20077;-83
2023/11/25 19:38:07;;;;;;;4.18;3.78;;;;;;;;;;10344616;28;20045;-83
2023/11/25 19:43:10;;;;;;;4.47;3.25;;;;;;;;;;10341626;28;20062;-83
2023/11/25 19:48:15;;;;;;;2.83;2.53;;;;;;;;;;10341491;28;20056;-84
2023/11/25 19:53:18;;;;;;;4.53;2.80;;;;;;;;;;10352736;28;20057;-83
2023/11/25 19:58:23;;;;;;;4.07;2.80;;;;;;;;;;10354353;28;20062;-83
2023/11/25 20:03:27;;;;;;;3.92;2.50;;;;;;;;;;10340549;28;20085;-84
2023/11/25 20:08:32;;;;;;;3.13;1.80;;;;;;;;;;10360736;28;20054;-83
2023/11/25 20:13:36;;;;;;;1.80;1.20;;;;;;;;;;10348139;28;20500;-84
2023/11/25 20:18:40;;;;;;;2.97;1.73;;;;;;;;;;10338027;28;20079;-83
2023/11/25 20:23:44;;;;;;;2.10;1.20;;;;;;;;;;10322123;28;20039;-83
2023/11/25 20:28:47;;;;;;;1.17;0.93;;;;;;;;;;10324390;28;20109;-83
2023/11/25 20:33:52;;;;;;;0.70;0.70;;;;;;;;;;10321429;28;20074;-82
2023/11/25 20:38:55;;;;;;;1.00;0.88;;;;;;;;;;10322934;28;20077;-83
2023/11/25 20:43:59;;;;;;;1.40;0.57;;;;;;;;;;10329522;28;20042;-83
2023/11/25 20:49:04;;;;;;;2.35;0.80;;;;;;;;;;10347526;28;20564;-83
2023/11/25 20:54:08;;;;;;;1.20;0.80;;;;;;;;;;10331247;28;20077;-84
2023/11/25 20:59:12;;;;;;;3.97;1.48;;;;;;;;;;10323097;28;20054;-83
2023/11/25 21:04:17;;;;;;;3.97;1.80;;;;;;;;;;10321738;28;20038;-83
2023/11/25 21:09:21;;;;;;;2.28;1.40;;;;;;;;;;10335807;28;20074;-83
2023/11/25 21:14:24;;;;;;;1.77;1.40;;;;;;;;;;10320933;28;20580;-84
2023/11/25 21:19:29;;;;;;;2.38;1.35;;;;;;;;;;10327640;28;20089;-84
2023/11/25 21:24:33;;;;;;;3.70;1.77;;;;;;;;;;10333413;28;20077;-84
2023/11/25 21:29:36;;;;;;;2.30;1.42;;;;;;;;;;10335200;28;20046;-83
2023/11/25 21:34:41;;;;;;;2.88;1.65;;;;;;;;;;10332070;28;20050;-83
2023/11/25 21:39:44;;;;;;;2.70;1.77;;;;;;;;;;10335181;28;20053;-83
2023/11/25 21:44:48;;;;;;;4.55;2.25;;;;;;;;;;10334338;28;20779;-84
2023/11/25 21:49:53;;;;;;;5.10;2.35;;;;;;;;;;10338748;28;20112;-83
2023/11/25 22:00:29;;;;;;;3.65;1.90;;;;;;;;;;10311164;28;20054;-75
2023/11/25 22:05:34;;;;;;;4.45;2.25;;;;;;;;;;10310451;28;20065;-75
2023/11/25 22:10:39;;;;;;;3.65;1.67;;;;;;;;;;10307731;28;20046;-75
2023/11/25 22:15:43;;;;;;;3.40;1.50;;;;;;;;;;10299043;28;20051;-75
2023/11/25 22:20:48;;;;;;;3.80;1.90;;;;;;;;;;10304823;28;20050;-75
2023/11/25 22:26:03;;;;;;;4.90;2.55;;;;;;;;;;10310226;28;20135;-75
2023/11/25 22:31:07;;;;;;;5.70;2.85;;;;;;;;;;10307574;28;20055;-75
2023/11/25 22:36:22;;;;;;;4.07;2.17;;;;;;;;;;10314958;28;20054;-75
2023/11/25 22:41:25;;;;;;;3.05;1.92;;;;;;;;;;10307100;28;20110;-75
2023/11/25 22:46:28;;;;;;;5.72;3.17;;;;;;;;;;10297452;28;20091;-75
2023/11/25 22:51:34;;;;;;;5.15;2.70;;;;;;;;;;10306190;28;20054;-75
2023/11/25 22:56:37;;;;;;;2.17;1.77;;;;;;;;;;10306161;28;20043;-75
2023/11/25 23:01:41;;;;;;;4.10;2.53;;;;;;;;;;10305269;28;20050;-75
2023/11/25 23:06:47;;;;;;;3.63;2.42;;;;;;;;;;10304635;28;20054;-75
2023/11/25 23:11:50;;;;;;;;;;;;;;;;;;10301902;28;20055;-75
2023/11/25 23:16:54;;;;;;;2.03;1.35;;;;;;;;;;10297577;28;19929;-75
2023/11/25 23:21:58;;;;;;;1.83;1.52;;;;;;;;;;10278683;28;20046;-75
2023/11/25 23:27:03;;;;;;;2.38;1.52;;;;;;;;;;10299795;28;20062;-75
2023/11/25 23:32:07;;;;;;;3.42;1.77;;;;;;;;;;10287669;28;21343;-75
2023/11/25 23:37:15;;;;;;;2.30;1.60;;;;;;;;;;10310544;28;20760;-75
2023/11/25 23:42:19;;;;;;;2.67;1.67;;;;;;;;;;10307438;28;20054;-75
2023/11/25 23:47:22;;;;;;;2.20;1.60;;;;;;;;;;10302616;28;20051;-75
2023/11/25 23:52:27;;;;;;;4.63;2.67;;;;;;;;;;10312345;28;20662;-75
2023/11/25 23:57:31;;;;;;;3.00;1.88;;;;;;;;;;10301087;28;20046;-73
